createdAt,value
2019-02-17T00:01:52.804Z,-1.30
2019-02-17T00:04:20.536Z,-1.20
2019-02-17T00:06:48.277Z,-1.20
2019-02-17T00:09:16.142Z,-1.20
2019-02-17T00:11:44.153Z,-1.20
2019-02-17T00:14:11.959Z,-1.10
2019-02-17T00:16:40.650Z,-1.20
2019-02-17T00:19:08.514Z,-1.20
2019-02-17T00:21:36.803Z,-1.20
2019-02-17T00:24:04.693Z,-1.10
2019-02-17T00:26:33.038Z,-1.00
2019-02-17T00:29:00.788Z,-0.90
2019-02-17T00:31:28.487Z,-0.70
2019-02-17T00:33:56.216Z,-0.60
2019-02-17T00:36:23.874Z,-0.60
2019-02-17T00:38:51.540Z,-0.50
2019-02-17T00:41:19.199Z,-0.20
2019-02-17T00:43:46.918Z,0.10
2019-02-17T00:46:14.640Z,0.50
2019-02-17T00:48:42.493Z,0.90
2019-02-17T00:51:10.378Z,1.10
2019-02-17T00:53:38.023Z,1.60
2019-02-17T00:56:05.692Z,1.60
2019-02-17T00:58:33.350Z,1.90
2019-02-17T01:01:02.404Z,2.10
2019-02-17T01:03:31.523Z,2.30
2019-02-17T01:05:59.332Z,2.60
2019-02-17T01:08:27.168Z,3.00
2019-02-17T01:10:56.068Z,3.10
2019-02-17T01:13:23.825Z,3.30
2019-02-17T01:15:51.578Z,3.40
2019-02-17T01:18:19.426Z,3.60
2019-02-17T01:20:47.470Z,3.80
2019-02-17T01:23:15.193Z,3.90
2019-02-17T01:25:42.878Z,3.90
2019-02-17T01:28:10.706Z,4.00
2019-02-17T01:30:38.451Z,4.00
2019-02-17T01:33:06.185Z,3.90
2019-02-17T01:35:33.978Z,3.80
2019-02-17T01:38:01.690Z,3.90
2019-02-17T01:40:29.404Z,4.10
2019-02-17T01:42:57.057Z,4.20
2019-02-17T01:45:24.713Z,4.20
2019-02-17T01:47:52.330Z,4.10
2019-02-17T01:50:20.544Z,4.00
2019-02-17T01:52:48.309Z,3.80
2019-02-17T01:55:15.982Z,3.90
2019-02-17T01:57:43.677Z,3.80
2019-02-17T02:00:12.080Z,3.80
2019-02-17T02:02:39.748Z,3.70
2019-02-17T02:05:07.767Z,3.60
2019-02-17T02:07:35.501Z,3.60
2019-02-17T02:10:04.267Z,3.50
2019-02-17T02:12:32.030Z,3.70
2019-02-17T02:14:59.622Z,3.70
2019-02-17T02:17:27.352Z,3.70
2019-02-17T02:19:55.102Z,3.60
2019-02-17T02:22:22.773Z,3.50
2019-02-17T02:24:50.729Z,3.40
2019-02-17T02:27:18.430Z,3.40
2019-02-17T02:29:46.068Z,3.50
2019-02-17T02:32:13.938Z,3.50
2019-02-17T02:34:41.693Z,3.40
2019-02-17T02:37:09.452Z,3.50
2019-02-17T02:39:37.185Z,3.50
2019-02-17T02:42:04.911Z,3.50
2019-02-17T02:44:32.635Z,3.50
2019-02-17T02:47:00.314Z,3.60
2019-02-17T02:49:27.965Z,3.70
2019-02-17T02:51:55.757Z,3.60
2019-02-17T02:54:23.520Z,3.60
2019-02-17T02:56:51.179Z,3.60
2019-02-17T02:59:18.907Z,3.60
2019-02-17T03:01:46.580Z,3.80
2019-02-17T03:04:14.362Z,3.80
2019-02-17T03:06:56.093Z,3.60
2019-02-17T03:09:23.808Z,3.60
2019-02-17T03:11:51.496Z,3.40
2019-02-17T03:14:19.292Z,3.40
2019-02-17T03:16:47.041Z,3.40
2019-02-17T03:19:14.790Z,3.30
2019-02-17T03:21:42.474Z,3.30
2019-02-17T03:24:10.174Z,3.30
2019-02-17T03:26:37.862Z,3.30
2019-02-17T03:29:05.613Z,3.40
2019-02-17T03:31:33.326Z,3.40
2019-02-17T03:34:01.000Z,3.20
2019-02-17T03:36:28.735Z,3.20
2019-02-17T03:38:56.431Z,3.20
2019-02-17T03:41:24.038Z,3.30
2019-02-17T03:43:51.666Z,3.30
2019-02-17T03:46:19.922Z,3.20
2019-02-17T03:48:47.724Z,3.10
2019-02-17T03:51:15.515Z,3.30
2019-02-17T03:53:45.533Z,3.60
2019-02-17T03:56:13.347Z,3.90
2019-02-17T03:58:41.039Z,4.10
2019-02-17T04:01:08.727Z,4.20
2019-02-17T04:03:36.475Z,4.20
2019-02-17T04:06:04.103Z,4.00
2019-02-17T04:08:31.904Z,3.80
2019-02-17T04:10:59.639Z,3.50
2019-02-17T04:13:27.282Z,3.40
2019-02-17T04:15:54.859Z,3.20
2019-02-17T04:18:22.594Z,3.10
2019-02-17T04:20:50.410Z,3.00
2019-02-17T04:23:18.189Z,3.00
2019-02-17T04:25:45.836Z,3.00
2019-02-17T04:28:13.564Z,3.10
2019-02-17T04:30:41.231Z,3.10
2019-02-17T04:33:08.872Z,3.00
2019-02-17T04:35:36.678Z,2.90
2019-02-17T04:38:04.379Z,3.00
2019-02-17T04:40:32.088Z,3.00
2019-02-17T04:42:59.825Z,3.00
2019-02-17T04:45:27.566Z,2.90
2019-02-17T04:47:55.374Z,3.00
2019-02-17T04:50:23.147Z,3.00
2019-02-17T04:52:50.932Z,3.00
2019-02-17T04:55:18.634Z,3.10
2019-02-17T04:57:48.578Z,3.20
2019-02-17T05:00:16.305Z,3.20
2019-02-17T05:02:44.045Z,3.30
2019-02-17T05:05:11.806Z,3.30
2019-02-17T05:07:39.609Z,3.30
2019-02-17T05:10:07.477Z,3.20
2019-02-17T05:12:35.278Z,3.20
2019-02-17T05:15:02.934Z,3.10
2019-02-17T05:17:30.624Z,3.10
2019-02-17T05:19:58.397Z,2.90
2019-02-17T05:22:26.054Z,2.90
2019-02-17T05:24:53.768Z,2.80
2019-02-17T05:27:21.498Z,2.80
2019-02-17T05:29:49.134Z,2.90
2019-02-17T05:32:16.793Z,2.90
2019-02-17T05:34:44.486Z,2.80
2019-02-17T05:37:12.247Z,2.80
2019-02-17T05:39:39.976Z,2.70
2019-02-17T05:42:07.657Z,2.80
2019-02-17T05:44:35.306Z,2.80
2019-02-17T05:47:03.087Z,2.80
2019-02-17T05:49:30.755Z,2.80
2019-02-17T05:51:58.516Z,2.70
2019-02-17T05:54:26.265Z,2.80
2019-02-17T05:56:54.038Z,2.90
2019-02-17T05:59:21.918Z,2.90
2019-02-17T06:01:49.662Z,3.00
2019-02-17T06:04:17.325Z,3.10
2019-02-17T06:06:45.014Z,3.10
2019-02-17T06:09:12.736Z,3.10
2019-02-17T06:11:40.505Z,3.00
2019-02-17T06:14:08.281Z,3.10
2019-02-17T06:16:36.026Z,3.20
2019-02-17T06:19:03.918Z,3.30
2019-02-17T06:21:31.582Z,3.30
2019-02-17T06:23:59.335Z,3.30
2019-02-17T06:26:27.008Z,3.40
2019-02-17T06:28:54.762Z,3.50
2019-02-17T06:31:22.430Z,3.50
2019-02-17T06:33:50.154Z,3.60
2019-02-17T06:36:17.746Z,3.60
2019-02-17T06:38:45.610Z,3.60
2019-02-17T06:41:13.450Z,3.60
2019-02-17T06:43:41.174Z,3.60
2019-02-17T06:46:10.795Z,3.60
2019-02-17T06:48:38.427Z,3.70
2019-02-17T06:51:06.193Z,3.70
2019-02-17T06:53:33.872Z,3.80
2019-02-17T06:56:11.954Z,3.90
2019-02-17T06:58:39.721Z,4.00
2019-02-17T07:01:07.635Z,4.10
2019-02-17T07:03:38.509Z,4.20
2019-02-17T07:06:12.345Z,4.20
2019-02-17T07:08:40.139Z,4.40
2019-02-17T07:11:08.048Z,4.40
2019-02-17T07:13:35.678Z,4.50
2019-02-17T07:16:03.383Z,4.50
2019-02-17T07:18:31.773Z,4.50
2019-02-17T07:20:59.434Z,4.60
2019-02-17T07:23:28.541Z,4.60
2019-02-17T07:25:56.157Z,4.60
2019-02-17T07:28:23.898Z,4.70
2019-02-17T07:30:52.530Z,4.80
2019-02-17T07:33:20.203Z,5.00
2019-02-17T07:35:47.822Z,5.10
2019-02-17T07:38:15.507Z,5.20
2019-02-17T07:40:43.195Z,5.30
2019-02-17T07:43:12.312Z,5.30
2019-02-17T07:45:40.190Z,5.40
2019-02-17T07:48:08.339Z,5.40
2019-02-17T07:50:36.201Z,5.50
2019-02-17T07:53:03.948Z,5.50
2019-02-17T07:55:31.622Z,5.50
2019-02-17T07:57:59.514Z,5.50
2019-02-17T08:00:27.179Z,5.50
2019-02-17T08:02:55.200Z,5.40
2019-02-17T08:05:23.005Z,5.30
2019-02-17T08:07:50.786Z,5.20
2019-02-17T08:10:18.542Z,5.20
2019-02-17T08:12:46.224Z,5.20
2019-02-17T08:15:14.066Z,5.20
2019-02-17T08:17:42.198Z,5.50
2019-02-17T08:20:10.102Z,5.40
2019-02-17T08:22:37.921Z,5.40
2019-02-17T08:25:06.036Z,5.50
2019-02-17T08:27:33.921Z,5.70
2019-02-17T08:30:01.854Z,5.80
2019-02-17T08:32:29.698Z,6.00
2019-02-17T08:34:57.303Z,6.10
2019-02-17T08:37:25.031Z,6.20
2019-02-17T08:39:52.942Z,6.30
2019-02-17T08:42:20.864Z,6.40
2019-02-17T08:44:48.510Z,6.40
2019-02-17T08:47:17.708Z,6.40
2019-02-17T08:49:45.483Z,6.50
2019-02-17T08:52:13.546Z,6.50
2019-02-17T08:54:41.474Z,6.30
2019-02-17T08:57:09.714Z,6.40
2019-02-17T08:59:37.315Z,6.30
2019-02-17T09:02:06.272Z,6.30
2019-02-17T09:04:36.726Z,6.40
2019-02-17T09:07:06.349Z,6.40
2019-02-17T09:09:34.118Z,6.50
2019-02-17T09:12:02.335Z,6.40
2019-02-17T09:14:30.089Z,6.60
2019-02-17T09:16:57.744Z,6.70
2019-02-17T09:19:25.626Z,6.80
2019-02-17T09:27:04.123Z,7.10
2019-02-17T09:29:31.814Z,7.10
2019-02-17T09:32:02.210Z,7.20
2019-02-17T09:34:30.513Z,7.30
2019-02-17T09:36:58.676Z,7.30
2019-02-17T09:39:26.596Z,7.40
2019-02-17T09:41:54.470Z,7.40
2019-02-17T09:44:22.863Z,7.50
2019-02-17T09:46:50.496Z,7.60
2019-02-17T09:49:19.268Z,7.80
2019-02-17T09:51:48.022Z,7.90
2019-02-17T09:54:15.869Z,8.10
2019-02-17T09:56:44.000Z,8.30
2019-02-17T09:59:11.987Z,8.40
2019-02-17T10:01:42.701Z,8.50
2019-02-17T10:04:10.574Z,8.60
2019-02-17T10:06:38.372Z,8.70
2019-02-17T10:09:06.532Z,8.70
2019-02-17T10:11:34.304Z,8.80
2019-02-17T10:14:03.310Z,9.00
2019-02-17T10:16:31.677Z,8.90
2019-02-17T10:18:59.757Z,8.90
2019-02-17T10:21:27.517Z,8.80
2019-02-17T10:23:57.083Z,8.90
2019-02-17T10:26:25.104Z,9.00
2019-02-17T10:28:57.403Z,9.20
2019-02-17T10:31:25.606Z,9.50
2019-02-17T10:33:54.684Z,9.30
2019-02-17T10:36:23.392Z,9.20
2019-02-17T10:38:51.243Z,9.10
2019-02-17T10:41:19.374Z,9.20
2019-02-17T10:43:47.190Z,9.20
2019-02-17T10:46:16.682Z,9.10
2019-02-17T10:48:44.451Z,9.10
2019-02-17T10:51:12.594Z,9.00
2019-02-17T10:53:43.220Z,9.00
2019-02-17T10:56:10.910Z,9.20
2019-02-17T10:58:38.602Z,9.20
2019-02-17T11:01:07.886Z,9.30
2019-02-17T11:03:36.312Z,9.30
2019-02-17T11:06:04.073Z,9.40
2019-02-17T11:08:32.727Z,9.40
2019-02-17T11:11:00.464Z,9.40
2019-02-17T11:13:28.434Z,9.40
2019-02-17T11:15:57.420Z,9.40
2019-02-17T11:18:25.292Z,9.40
2019-02-17T11:20:53.037Z,9.40
2019-02-17T11:23:20.913Z,9.50
2019-02-17T11:25:48.502Z,9.50
2019-02-17T11:28:16.465Z,9.50
2019-02-17T11:30:44.288Z,9.50
2019-02-17T11:33:12.189Z,9.60
2019-02-17T11:35:40.027Z,9.60
2019-02-17T11:38:07.969Z,9.70
2019-02-17T11:40:35.838Z,9.90
2019-02-17T11:43:03.712Z,9.90
2019-02-17T11:45:31.775Z,10.00
2019-02-17T11:47:59.679Z,10.00
2019-02-17T11:50:28.774Z,10.00
2019-02-17T11:52:56.591Z,10.10
2019-02-17T11:55:24.964Z,10.10
2019-02-17T11:57:52.817Z,9.80
2019-02-17T12:00:20.728Z,9.90
2019-02-17T12:02:48.576Z,10.10
2019-02-17T12:05:16.407Z,10.20
2019-02-17T12:07:44.102Z,10.20
2019-02-17T12:10:11.763Z,10.30
2019-02-17T12:12:39.731Z,10.40
2019-02-17T12:15:08.186Z,10.40
2019-02-17T12:17:36.050Z,10.30
2019-02-17T12:20:24.183Z,10.40
2019-02-17T12:22:57.389Z,10.30
2019-02-17T12:25:35.321Z,10.30
2019-02-17T12:28:21.408Z,10.20
2019-02-17T12:30:51.778Z,10.10
2019-02-17T12:33:21.749Z,10.10
2019-02-17T12:35:49.977Z,10.10
2019-02-17T12:38:18.236Z,10.00
2019-02-17T12:40:46.120Z,10.00
2019-02-17T12:43:14.646Z,10.10
2019-02-17T12:45:42.292Z,10.00
2019-02-17T12:48:10.010Z,10.00
2019-02-17T12:50:37.719Z,10.00
2019-02-17T12:53:05.422Z,9.90
2019-02-17T12:55:33.099Z,9.90
2019-02-17T12:58:00.772Z,9.90
2019-02-17T13:00:31.970Z,9.80
2019-02-17T13:03:00.001Z,9.80
2019-02-17T13:05:28.966Z,9.80
2019-02-17T13:07:56.896Z,9.80
2019-02-17T13:10:24.663Z,9.80
2019-02-17T13:12:52.822Z,9.90
2019-02-17T13:15:20.534Z,9.80
2019-02-17T13:17:48.369Z,9.80
2019-02-17T13:20:16.167Z,9.90
2019-02-17T13:22:43.918Z,9.80
2019-02-17T13:25:11.761Z,9.90
2019-02-17T13:27:39.618Z,9.90
2019-02-17T13:30:11.885Z,9.90
2019-02-17T13:32:39.630Z,9.80
2019-02-17T13:35:07.543Z,9.90
2019-02-17T13:37:35.925Z,9.90
2019-02-17T13:40:04.482Z,9.90
2019-02-17T13:42:32.581Z,9.90
2019-02-17T13:45:02.164Z,9.90
2019-02-17T13:47:29.958Z,9.90
2019-02-17T13:49:58.979Z,9.80
2019-02-17T13:52:26.930Z,9.80
2019-02-17T13:54:54.700Z,9.80
2019-02-17T13:57:25.811Z,9.70
2019-02-17T13:59:53.640Z,9.70
2019-02-17T14:02:21.451Z,9.60
2019-02-17T14:04:52.745Z,9.60
2019-02-17T14:07:22.277Z,9.60
2019-02-17T14:09:50.512Z,9.60
2019-02-17T14:12:18.559Z,9.60
2019-02-17T14:14:50.904Z,9.60
2019-02-17T14:17:32.633Z,9.50
2019-02-17T14:20:00.723Z,9.50
2019-02-17T14:22:30.371Z,9.50
2019-02-17T14:25:01.798Z,9.50
2019-02-17T14:27:29.890Z,9.40
2019-02-17T14:30:04.693Z,9.40
2019-02-17T14:32:35.097Z,9.40
2019-02-17T14:35:07.470Z,9.40
2019-02-17T14:37:39.783Z,9.50
2019-02-17T14:40:08.753Z,9.50
2019-02-17T14:42:48.097Z,9.40
2019-02-17T14:45:20.383Z,9.40
2019-02-17T14:47:55.571Z,9.40
2019-02-17T14:50:24.555Z,9.50
2019-02-17T14:52:53.313Z,9.40
2019-02-17T14:55:21.835Z,9.40
2019-02-17T14:57:49.684Z,9.40
2019-02-17T15:00:17.459Z,9.30
2019-02-17T15:02:45.217Z,9.30
2019-02-17T15:05:12.981Z,9.20
2019-02-17T15:07:40.976Z,9.10
2019-02-17T15:10:09.045Z,9.10
2019-02-17T15:12:36.850Z,8.90
2019-02-17T15:15:05.649Z,8.90
2019-02-17T15:17:33.546Z,8.80
2019-02-17T15:20:01.993Z,8.80
2019-02-17T15:22:29.825Z,8.80
2019-02-17T15:24:57.641Z,8.70
2019-02-17T15:27:25.486Z,8.70
2019-02-17T15:29:53.474Z,8.70
2019-02-17T15:32:21.251Z,8.70
2019-02-17T15:34:49.240Z,8.60
2019-02-17T15:37:17.164Z,8.60
2019-02-17T15:39:45.046Z,8.70
2019-02-17T15:42:12.790Z,8.70
2019-02-17T15:44:40.666Z,8.60
2019-02-17T15:47:08.453Z,8.60
2019-02-17T15:49:36.833Z,8.60
2019-02-17T15:52:04.751Z,8.50
2019-02-17T15:54:33.496Z,8.50
2019-02-17T15:57:02.635Z,8.50
2019-02-17T15:59:30.543Z,8.50
2019-02-17T16:01:58.380Z,8.60
2019-02-17T16:04:28.561Z,8.50
2019-02-17T16:06:55.835Z,8.50
2019-02-17T16:09:35.403Z,8.50
2019-02-17T16:12:03.777Z,8.60
2019-02-17T16:14:37.105Z,8.40
2019-02-17T16:17:05.164Z,8.50
2019-02-17T16:19:36.933Z,8.50
2019-02-17T16:22:05.533Z,8.50
2019-02-17T16:24:49.257Z,8.50
2019-02-17T16:27:25.653Z,8.60
2019-02-17T16:29:57.079Z,8.60
2019-02-17T16:32:29.962Z,8.70
2019-02-17T16:35:01.655Z,8.80
2019-02-17T16:37:30.953Z,8.80
2019-02-17T16:39:58.724Z,8.80
2019-02-17T16:42:29.579Z,8.80
2019-02-17T16:45:09.838Z,8.80
2019-02-17T16:47:37.898Z,8.60
2019-02-17T16:50:07.872Z,8.80
2019-02-17T16:52:38.940Z,8.70
2019-02-17T16:55:10.651Z,8.70
2019-02-17T16:57:46.180Z,8.70
2019-02-17T17:00:17.761Z,8.60
2019-02-17T17:02:45.544Z,8.70
2019-02-17T17:05:14.388Z,8.70
2019-02-17T17:07:42.350Z,8.60
2019-02-17T17:10:11.273Z,8.60
2019-02-17T17:12:40.872Z,8.60
2019-02-17T17:15:08.953Z,8.60
2019-02-17T17:17:40.470Z,8.50
2019-02-17T17:20:22.039Z,8.50
2019-02-17T17:22:58.309Z,8.50
2019-02-17T17:25:28.840Z,8.50
2019-02-17T17:27:57.955Z,8.50
2019-02-17T17:30:32.155Z,8.60
2019-02-17T17:33:14.264Z,8.60
2019-02-17T17:35:44.912Z,8.70
2019-02-17T17:40:56.884Z,8.70
2019-02-17T17:45:57.456Z,8.70
2019-02-17T17:48:25.379Z,8.60
2019-02-17T17:50:53.389Z,8.60
2019-02-17T17:53:23.327Z,8.60
2019-02-17T17:55:51.851Z,8.60
2019-02-17T17:58:20.753Z,8.50
2019-02-17T18:00:54.752Z,8.60
2019-02-17T18:03:32.712Z,8.70
2019-02-17T18:06:00.689Z,8.60
2019-02-17T18:08:28.656Z,8.60
2019-02-17T18:10:56.620Z,8.60
2019-02-17T18:13:31.988Z,8.50
2019-02-17T18:16:00.284Z,8.50
2019-02-17T18:18:28.749Z,8.40
2019-02-17T18:20:56.672Z,8.40
2019-02-17T18:23:24.471Z,8.40
2019-02-17T18:25:52.436Z,8.40
2019-02-17T18:28:20.307Z,8.40
2019-02-17T18:30:48.153Z,8.40
2019-02-17T18:33:15.952Z,8.40
2019-02-17T18:35:44.018Z,8.40
2019-02-17T18:40:47.939Z,8.40
2019-02-17T18:43:15.906Z,8.30
2019-02-17T18:45:47.367Z,8.30
2019-02-17T18:48:18.382Z,8.30
2019-02-17T18:50:58.726Z,8.40
2019-02-17T18:53:19.567Z,8.40
2019-02-17T18:55:47.329Z,8.30
2019-02-17T18:58:15.085Z,8.30
2019-02-17T19:00:42.876Z,8.20
2019-02-17T19:03:10.813Z,8.20
2019-02-17T19:05:38.784Z,8.10
2019-02-17T19:08:06.561Z,8.10
2019-02-17T19:10:34.986Z,8.00
2019-02-17T19:13:02.915Z,8.00
2019-02-17T19:15:31.175Z,8.00
2019-02-17T19:17:58.947Z,7.90
2019-02-17T19:20:26.823Z,8.00
2019-02-17T19:22:54.542Z,8.00
2019-02-17T19:25:24.415Z,7.90
2019-02-17T19:27:52.301Z,7.90
2019-02-17T19:30:20.229Z,7.90
2019-02-17T19:32:48.173Z,7.90
2019-02-17T19:35:16.137Z,7.90
2019-02-17T19:37:43.917Z,7.90
2019-02-17T19:40:11.982Z,7.90
2019-02-17T19:42:39.883Z,7.80
2019-02-17T19:45:08.758Z,7.80
2019-02-17T19:47:38.952Z,7.90
2019-02-17T19:50:08.397Z,8.00
2019-02-17T19:52:36.274Z,8.00
2019-02-17T19:55:04.455Z,8.00
2019-02-17T19:57:32.275Z,8.10
2019-02-17T20:00:00.037Z,8.10
2019-02-17T20:03:05.251Z,8.00
2019-02-17T20:05:35.576Z,8.00
2019-02-17T20:08:03.637Z,7.90
2019-02-17T20:10:31.405Z,7.90
2019-02-17T20:12:59.690Z,7.90
2019-02-17T20:15:29.807Z,7.90
2019-02-17T20:17:57.456Z,7.90
2019-02-17T20:20:25.247Z,7.70
2019-02-17T20:22:53.204Z,7.90
2019-02-17T20:25:21.116Z,7.90
2019-02-17T20:27:48.916Z,7.80
2019-02-17T20:30:16.709Z,7.80
2019-02-17T20:32:44.418Z,7.80
2019-02-17T20:35:12.233Z,7.70
2019-02-17T20:37:40.009Z,7.80
2019-02-17T20:40:07.826Z,7.80
2019-02-17T20:42:36.664Z,7.80
2019-02-17T20:45:04.885Z,7.70
2019-02-17T20:47:34.812Z,7.60
2019-02-17T20:50:02.598Z,7.60
2019-02-17T20:52:30.299Z,7.60
2019-02-17T20:54:58.063Z,7.50
2019-02-17T20:57:25.948Z,7.50
2019-02-17T20:59:53.716Z,7.40
2019-02-17T21:02:21.466Z,7.30
2019-02-17T21:04:49.422Z,7.30
2019-02-17T21:07:17.175Z,7.30
2019-02-17T21:09:45.594Z,7.30
2019-02-17T21:12:13.359Z,7.30
2019-02-17T21:14:41.158Z,7.30
2019-02-17T21:17:10.426Z,7.30
2019-02-17T21:19:38.185Z,7.30
2019-02-17T21:22:05.943Z,7.30
2019-02-17T21:24:34.239Z,7.30
2019-02-17T21:27:02.075Z,7.30
2019-02-17T21:29:30.419Z,7.30
2019-02-17T21:31:58.389Z,7.20
2019-02-17T21:34:26.307Z,7.20
2019-02-17T21:36:54.287Z,7.20
2019-02-17T21:39:22.494Z,7.20
2019-02-17T21:41:50.228Z,7.10
2019-02-17T21:44:18.041Z,7.10
2019-02-17T21:46:45.830Z,7.10
2019-02-17T21:49:13.783Z,7.00
2019-02-17T21:51:44.142Z,6.90
2019-02-17T21:54:11.966Z,7.00
2019-02-17T21:56:39.702Z,7.00
2019-02-17T21:59:07.438Z,7.00
2019-02-17T22:01:35.220Z,7.00
2019-02-17T22:04:03.052Z,7.10
2019-02-17T22:06:33.508Z,7.00
2019-02-17T22:09:00.390Z,7.00
2019-02-17T22:11:30.080Z,6.90
2019-02-17T22:13:57.841Z,6.90
2019-02-17T22:16:25.933Z,6.80
2019-02-17T22:18:53.692Z,6.80
2019-02-17T22:21:21.680Z,6.80
2019-02-17T22:23:49.452Z,6.90
2019-02-17T22:26:17.302Z,6.90
2019-02-17T22:28:46.640Z,6.90
2019-02-17T22:31:14.363Z,6.80
2019-02-17T22:33:42.125Z,6.80
2019-02-17T22:36:10.337Z,6.90
2019-02-17T22:38:38.002Z,6.80
2019-02-17T22:41:05.725Z,6.80
2019-02-17T22:43:34.133Z,6.80
2019-02-17T22:46:02.389Z,6.80
2019-02-17T22:48:30.202Z,6.70
2019-02-17T22:50:58.200Z,6.70
2019-02-17T22:53:26.857Z,6.70
2019-02-17T22:55:54.578Z,6.70
2019-02-17T22:58:22.359Z,6.80
2019-02-17T23:01:00.599Z,6.80
2019-02-17T23:03:28.864Z,6.90
2019-02-17T23:05:56.613Z,6.80
2019-02-17T23:08:24.409Z,6.80
2019-02-17T23:10:52.418Z,6.80
2019-02-17T23:13:20.404Z,6.70
2019-02-17T23:15:48.076Z,6.70
2019-02-17T23:18:17.981Z,6.70
2019-02-17T23:20:45.761Z,6.60
2019-02-17T23:23:15.342Z,6.60
2019-02-17T23:25:43.077Z,6.60
2019-02-17T23:28:10.773Z,6.60
2019-02-17T23:30:38.514Z,6.60
2019-02-17T23:33:06.399Z,6.70
2019-02-17T23:35:34.057Z,6.70
2019-02-17T23:38:01.718Z,6.70
2019-02-17T23:40:29.390Z,6.70
2019-02-17T23:42:57.198Z,6.80
2019-02-17T23:45:24.919Z,6.80
2019-02-17T23:47:52.914Z,6.90
2019-02-17T23:50:20.652Z,6.90
2019-02-17T23:52:50.432Z,7.00
2019-02-17T23:55:18.226Z,6.90
2019-02-17T23:57:45.961Z,6.90
